Time;durP1;ratioP1;P1;durP2;ratioP2;P2;SDS_P1;SDS_P2;PMS_P1;PMS_P2;Temp;Humidity;BMP_temperature;BMP_pressure;BME280_temperature;BME280_humidity;BME280_pressure;Samples;Min_cycle;Max_cycle;Signal;HPM_P1;HPM_P2
2023/02/04 00:01:20;;;;;;;;;17.25;13.00;;;;;11.89;61.96;103072.16;4964037;28;46188;-45
2023/02/04 00:03:46;;;;;;;;;8.50;8.50;;;;;11.90;62.14;103071.28;4963091;28;45312;-48
2023/02/04 00:06:11;;;;;;;;;14.00;11.50;;;;;11.89;62.04;103082.69;4964554;28;45378;-46
2023/02/04 00:08:36;;;;;;;;;13.50;11.75;;;;;11.90;62.15;103069.53;4964033;28;45301;-46
2023/02/04 00:11:02;;;;;;;;;12.75;11.00;;;;;11.91;61.91;103078.31;4964346;28;45578;-47
2023/02/04 00:13:28;;;;;;;;;18.25;11.75;;;;;11.92;62.27;103067.81;4946242;28;45262;-48
2023/02/04 00:15:53;;;;;;;;;13.50;10.25;;;;;11.90;62.25;103072.19;4964795;28;45949;-47
2023/02/04 00:18:18;;;;;;;;;14.75;12.25;;;;;11.94;62.24;103068.72;4962403;28;45320;-46
2023/02/04 00:20:44;;;;;;;;;14.25;12.00;;;;;11.94;62.25;103075.75;4956351;28;46102;-46
2023/02/04 00:23:09;;;;;;;;;14.00;12.75;;;;;11.92;62.23;103067.81;4963968;28;45230;-47
2023/02/04 00:25:34;;;;;;;;;14.00;12.75;;;;;11.95;61.96;103066.97;4963814;28;45188;-47
2023/02/04 00:28:00;;;;;;;;;11.75;10.50;;;;;11.94;62.12;103066.09;4963357;28;45420;-48
2023/02/04 00:30:25;;;;;;;;;13.00;12.25;;;;;11.95;62.22;103069.59;4945709;28;46097;-47
2023/02/04 00:32:53;;;;;;;;;13.75;11.50;;;;;11.95;62.53;103067.88;4951077;28;45300;-47
2023/02/04 00:35:19;;;;;;;;;9.00;7.75;;;;;11.93;62.16;103066.06;4963422;28;45385;-49
2023/02/04 00:37:45;;;;;;;;;12.50;8.75;;;;;11.92;62.47;103061.66;4963270;28;45523;-47
2023/02/04 00:40:11;;;;;;;;;12.75;11.25;;;;;11.93;62.22;103064.31;4963327;28;45924;-47
2023/02/04 00:42:36;;;;;;;;;13.25;12.50;;;;;11.93;62.27;103063.44;4963029;28;45351;-50
2023/02/04 00:45:01;;;;;;;;;12.25;11.00;;;;;11.94;62.36;103058.19;4962689;28;48510;-47
2023/02/04 00:47:27;;;;;;;;;17.00;13.75;;;;;11.95;62.22;103062.59;4963157;28;45442;-48
2023/02/04 00:49:52;;;;;;;;;13.00;12.25;;;;;11.97;62.31;103054.75;4957811;28;58608;-49
2023/02/04 00:52:17;;;;;;;;;14.25;11.00;;;;;11.97;62.18;103057.38;4960778;28;45484;-46
2023/02/04 00:54:43;;;;;;;;;13.25;12.25;;;;;11.97;62.32;103060.88;4963213;28;45544;-46
2023/02/04 00:57:08;;;;;;;;;13.00;12.25;;;;;11.97;62.11;103052.13;4954865;28;45212;-50
2023/02/04 00:59:33;;;;;;;;;20.75;14.25;;;;;11.98;62.18;103054.75;4962472;28;45323;-47
2023/02/04 01:01:59;;;;;;;;;11.00;11.00;;;;;11.97;62.23;103058.25;4961683;28;45350;-48
2023/02/04 01:04:25;;;;;;;;;11.75;10.00;;;;;11.98;62.23;103064.44;4945737;28;45460;-50
2023/02/04 01:06:50;;;;;;;;;14.00;12.25;;;;;12.00;62.36;103060.09;4962921;28;45429;-47
2023/02/04 01:09:15;;;;;;;;;15.00;10.75;;;;;12.01;62.41;103072.38;4961483;28;52854;-46
2023/02/04 01:11:41;;;;;;;;;12.50;11.00;;;;;11.97;62.33;103067.91;4961343;28;45374;-47
2023/02/04 01:14:06;;;;;;;;;12.25;10.25;;;;;11.96;62.37;103069.69;4961958;28;45528;-46
2023/02/04 01:16:32;;;;;;;;;13.00;11.25;;;;;11.98;62.32;103069.69;4962456;28;47134;-50
2023/02/04 01:18:59;;;;;;;;;18.50;15.00;;;;;11.98;62.37;103073.22;4962553;28;46180;-49
2023/02/04 01:21:25;;;;;;;;;13.00;11.00;;;;;11.99;62.45;103077.63;4961851;28;45330;-49
2023/02/04 01:23:51;;;;;;;;;13.50;13.25;;;;;11.99;62.29;103075.00;4962640;28;45401;-45
2023/02/04 01:26:17;;;;;;;;;11.00;11.00;;;;;11.99;62.24;103079.38;4961703;28;45421;-46
2023/02/04 01:28:43;;;;;;;;;16.25;13.75;;;;;12.00;62.23;103076.78;4962420;28;46255;-46
2023/02/04 01:31:08;;;;;;;;;17.75;15.25;;;;;12.01;62.27;103075.00;4962305;28;45439;-48
2023/02/04 01:33:33;;;;;;;;;16.50;13.75;;;;;11.99;62.47;103075.00;4949573;28;45370;-47
2023/02/04 01:35:59;;;;;;;;;10.25;9.00;;;;;12.02;62.35;103076.78;4945317;28;45332;-47
2023/02/04 01:38:24;;;;;;;;;10.00;8.75;;;;;12.02;62.50;103069.78;4944653;28;50343;-47
2023/02/04 01:40:50;;;;;;;;;17.75;13.50;;;;;12.02;62.20;103080.34;4962238;28;53984;-47
2023/02/04 01:43:17;;;;;;;;;13.00;11.75;;;;;12.03;62.46;103073.31;4962348;28;45347;-51
2023/02/04 01:45:43;;;;;;;;;17.00;14.50;;;;;12.03;62.57;103079.44;4962219;28;45556;-50
2023/02/04 01:48:08;;;;;;;;;14.00;12.00;;;;;12.04;62.33;103080.34;4962181;28;46362;-47
2023/02/04 01:50:34;;;;;;;;;15.75;15.50;;;;;12.05;62.42;103074.22;4945009;28;45640;-46
2023/02/04 01:53:00;;;;;;;;;12.50;12.50;;;;;12.07;62.26;103076.88;4962281;28;45496;-51
2023/02/04 01:55:28;;;;;;;;;14.75;12.00;;;;;12.08;62.53;103076.03;4962285;28;45381;-49
2023/02/04 01:57:57;;;;;;;;;17.25;16.50;;;;;12.08;62.85;103079.53;4954501;28;45278;-50
2023/02/04 02:00:27;;;;;;;;;13.00;11.75;;;;;12.10;62.37;103084.81;4961839;28;45279;-50
2023/02/04 02:02:53;;;;;;;;;20.25;16.75;;;;;12.10;62.55;103091.00;4949886;28;45351;-50
2023/02/04 02:05:37;;;;;;;;;15.00;14.00;;;;;12.08;62.62;103076.91;4962119;28;45271;-45
2023/02/04 02:08:04;;;;;;;;;17.25;14.25;;;;;12.09;62.39;103083.03;4961560;28;45322;-46
2023/02/04 02:10:30;;;;;;;;;18.00;14.75;;;;;12.10;62.34;103069.91;4961857;28;45235;-47
2023/02/04 02:12:56;;;;;;;;;18.75;16.75;;;;;12.09;62.50;103081.31;4944431;28;45392;-48
2023/02/04 02:15:22;;;;;;;;;15.50;14.75;;;;;12.07;62.56;103076.88;4961615;28;45587;-46
2023/02/04 02:17:48;;;;;;;;;17.75;16.75;;;;;12.05;62.45;103075.94;4961991;28;46043;-45
2023/02/04 02:20:16;;;;;;;;;14.75;12.75;;;;;12.03;62.61;103066.28;4960997;28;45359;-50
2023/02/04 02:22:47;;;;;;;;;21.00;17.50;;;;;12.02;62.23;103064.53;4962083;28;45401;-46
2023/02/04 02:25:13;;;;;;;;;19.00;14.25;;;;;12.01;62.53;103064.47;4961716;28;45552;-47
2023/02/04 02:27:39;;;;;;;;;20.75;15.50;;;;;12.03;62.91;103065.41;4961426;28;47120;-50
2023/02/04 02:30:08;;;;;;;;;19.50;16.50;;;;;11.99;62.75;103056.53;4961109;28;45437;-48
2023/02/04 02:32:34;;;;;;;;;22.75;19.25;;;;;12.01;62.54;103061.84;4951383;28;45274;-49
2023/02/04 02:35:00;;;;;;;;;18.50;17.25;;;;;12.00;62.64;103065.34;4958750;28;45255;-49
2023/02/04 02:37:25;;;;;;;;;21.00;14.50;;;;;12.01;62.69;103059.19;4961525;28;45239;-50
2023/02/04 02:39:51;;;;;;;;;18.50;16.25;;;;;11.98;62.75;103053.88;4961387;28;45241;-48
2023/02/04 02:42:18;;;;;;;;;18.25;17.25;;;;;11.99;62.65;103063.56;4961671;28;45169;-47
2023/02/04 02:44:45;;;;;;;;;18.00;17.25;;;;;11.99;62.84;103064.44;4960890;28;45395;-50
2023/02/04 02:47:16;;;;;;;;;20.00;18.50;;;;;11.98;62.84;103053.88;4961318;28;46406;-45
2023/02/04 02:49:42;;;;;;;;;17.25;15.50;;;;;11.97;62.71;103058.25;4961104;28;45143;-48
2023/02/04 02:52:12;;;;;;;;;18.50;15.75;;;;;11.98;62.84;103067.94;4961679;28;45240;-48
2023/02/04 02:54:39;;;;;;;;;25.50;20.50;;;;;11.94;62.93;103068.72;4961057;28;45299;-46
2023/02/04 02:57:11;;;;;;;;;24.25;22.50;;;;;11.96;63.01;103074.03;4954596;28;46278;-46
2023/02/04 02:59:37;;;;;;;;;18.75;14.75;;;;;11.96;62.50;103072.31;4930607;28;47140;-49
2023/02/04 03:02:04;;;;;;;;;23.25;20.75;;;;;11.96;62.86;103069.69;4961355;28;45310;-48
2023/02/04 03:04:32;;;;;;;;;20.25;15.00;;;;;11.96;62.82;103063.50;4954435;28;45470;-48
2023/02/04 03:06:58;;;;;;;;;20.00;16.75;;;;;11.95;62.81;103070.50;4961060;28;45267;-46
2023/02/04 03:09:26;;;;;;;;;20.00;17.25;;;;;11.94;63.21;103073.13;4956608;28;45356;-48
2023/02/04 03:11:51;;;;;;;;;20.00;19.50;;;;;11.93;62.90;103074.84;4938238;28;45354;-46
2023/02/04 03:14:17;;;;;;;;;19.00;16.25;;;;;11.94;63.01;103068.72;4960711;28;45323;-47
2023/02/04 03:16:43;;;;;;;;;21.00;17.75;;;;;11.94;62.91;103073.13;4960915;28;46338;-50
2023/02/04 03:19:10;;;;;;;;;21.00;17.25;;;;;11.92;63.10;103064.28;4960010;28;45235;-45
2023/02/04 03:21:36;;;;;;;;;18.50;17.25;;;;;11.93;63.18;103066.94;4961020;28;45288;-48
2023/02/04 03:24:02;;;;;;;;;20.75;18.00;;;;;11.94;63.30;103068.72;4960856;28;45440;-48
2023/02/04 03:26:28;;;;;;;;;14.00;12.50;;;;;11.95;63.21;103067.88;4960641;28;47169;-47
2023/02/04 03:28:53;;;;;;;;;20.00;15.25;;;;;11.92;63.00;103066.94;4960803;28;45362;-46
2023/02/04 03:31:19;;;;;;;;;15.50;12.75;;;;;11.93;63.26;103072.22;4943273;28;45352;-49
2023/02/04 03:33:45;;;;;;;;;17.50;16.50;;;;;11.93;63.14;103071.34;4931315;28;45302;-47
2023/02/04 03:36:10;;;;;;;;;24.50;20.75;;;;;11.93;63.02;103069.56;4943186;28;45462;-48
2023/02/04 03:38:36;;;;;;;;;18.50;14.50;;;;;11.94;63.21;103068.72;4960801;28;45319;-49
2023/02/04 03:41:01;;;;;;;;;16.25;13.00;;;;;11.91;63.06;103068.69;4960643;28;45465;-49
2023/02/04 03:43:27;;;;;;;;;19.50;14.75;;;;;11.94;63.02;103078.38;4960616;28;45266;-48
2023/02/04 03:45:52;;;;;;;;;20.75;16.25;;;;;11.93;63.05;103073.97;4960279;28;45744;-46
2023/02/04 03:48:17;;;;;;;;;19.75;14.75;;;;;11.92;63.03;103075.69;4960771;28;45259;-49
2023/02/04 03:50:43;;;;;;;;;21.25;16.50;;;;;11.93;63.31;103076.59;4960834;28;45478;-47
2023/02/04 03:53:09;;;;;;;;;15.00;14.25;;;;;11.94;63.08;103071.34;4960779;28;45508;-49
2023/02/04 03:55:34;;;;;;;;;17.75;14.50;;;;;11.95;63.04;103073.13;4960495;28;46140;-48
2023/02/04 03:58:03;;;;;;;;;24.25;15.75;;;;;11.97;63.22;103073.19;4949790;28;45172;-49
2023/02/04 04:00:30;;;;;;;;;15.50;11.25;;;;;11.96;63.18;103077.59;4960226;28;45358;-50
2023/02/04 04:02:56;;;;;;;;;16.00;15.00;;;;;11.96;63.06;103074.03;4960429;28;45322;-47
2023/02/04 04:05:21;;;;;;;;;15.75;15.25;;;;;11.96;62.97;103074.03;4960350;28;45819;-46
2023/02/04 04:07:47;;;;;;;;;17.50;16.75;;;;;11.95;63.09;103075.78;4960655;28;45394;-50
2023/02/04 04:10:12;;;;;;;;;17.25;17.00;;;;;11.97;62.99;103078.47;4960347;28;45329;-48
2023/02/04 04:12:37;;;;;;;;;18.00;16.75;;;;;11.96;62.93;103082.84;4960334;28;45366;-46
2023/02/04 04:15:03;;;;;;;;;18.75;14.50;;;;;11.96;63.15;103087.22;4942629;28;45563;-46
2023/02/04 04:17:28;;;;;;;;;18.75;14.75;;;;;11.91;63.03;103083.59;4960420;28;45215;-47
2023/02/04 04:19:53;;;;;;;;;22.00;17.50;;;;;11.93;63.31;103090.66;4960387;28;45286;-49
2023/02/04 04:22:19;;;;;;;;;20.50;18.00;;;;;11.94;63.11;103089.81;4960307;28;47217;-46
2023/02/04 04:24:44;;;;;;;;;20.25;16.50;;;;;11.93;63.12;103090.66;4960174;28;45322;-49
2023/02/04 04:27:09;;;;;;;;;17.75;13.00;;;;;11.94;63.06;103089.81;4960257;28;45358;-49
2023/02/04 04:29:35;;;;;;;;;21.75;18.50;;;;;11.93;62.94;103089.78;4960038;28;45197;-48
2023/02/04 04:32:00;;;;;;;;;18.50;14.00;;;;;11.86;63.26;103079.13;4957208;28;45438;-50
2023/02/04 04:34:25;;;;;;;;;18.75;17.50;;;;;11.92;63.01;103088.00;4955997;28;50714;-45
2023/02/04 04:36:51;;;;;;;;;22.25;15.50;;;;;11.93;63.21;103101.19;4963335;28;45384;-48
2023/02/04 04:39:16;;;;;;;;;18.75;14.50;;;;;11.93;63.23;103090.66;4963623;28;45307;-49
2023/02/04 04:41:41;;;;;;;;;21.75;17.25;;;;;11.92;63.28;103095.91;4963076;28;47273;-49
2023/02/04 04:44:07;;;;;;;;;16.75;15.75;;;;;11.87;63.21;103088.81;4945437;28;48372;-48
2023/02/04 04:46:32;;;;;;;;;16.75;15.25;;;;;11.89;63.02;103099.38;4963263;28;45291;-46
2023/02/04 04:48:58;;;;;;;;;17.00;16.00;;;;;11.90;63.22;103106.44;4946171;28;45502;-51
2023/02/04 04:51:23;;;;;;;;;16.75;14.75;;;;;11.91;63.35;103096.75;4963229;28;45212;-49
2023/02/04 04:53:48;;;;;;;;;18.25;12.25;;;;;11.88;63.16;103094.97;4963162;28;45363;-46
2023/02/04 04:56:13;;;;;;;;;16.75;13.25;;;;;11.92;63.11;103103.81;4962649;28;45376;-47
2023/02/04 04:58:39;;;;;;;;;23.50;14.75;;;;;11.92;63.05;103107.31;4956201;28;45376;-46
2023/02/04 05:01:04;;;;;;;;;14.50;12.75;;;;;11.92;63.17;103102.06;4962822;28;45452;-49
2023/02/04 05:03:29;;;;;;;;;17.25;13.00;;;;;11.93;63.11;103111.75;4962673;28;51510;-49
2023/02/04 05:05:55;;;;;;;;;17.25;14.75;;;;;11.93;62.96;103114.38;4962986;28;45402;-50
2023/02/04 05:08:20;;;;;;;;;15.50;14.25;;;;;11.94;63.21;103116.16;4945750;28;45312;-46
2023/02/04 05:10:45;;;;;;;;;14.75;13.75;;;;;11.95;63.07;103112.66;4962736;28;47596;-49
2023/02/04 05:13:12;;;;;;;;;18.00;16.00;;;;;11.95;63.08;103111.75;4961809;28;45320;-47
2023/02/04 05:15:38;;;;;;;;;16.00;14.25;;;;;11.93;63.25;103109.09;4962819;28;45355;-48
2023/02/04 05:18:03;;;;;;;;;16.25;14.00;;;;;11.98;63.16;103111.88;4963042;28;45548;-46
2023/02/04 05:20:29;;;;;;;;;18.50;15.75;;;;;11.95;62.92;103093.31;4950154;28;45321;-47
2023/02/04 05:22:59;;;;;;;;;15.75;14.00;;;;;11.99;63.12;103108.38;4962829;28;45299;-47
2023/02/04 05:25:26;;;;;;;;;10.25;10.00;;;;;11.97;63.21;103100.41;4950571;28;45292;-50
2023/02/04 05:27:51;;;;;;;;;16.75;13.00;;;;;11.98;62.93;103101.31;4962555;28;45331;-46
2023/02/04 05:30:16;;;;;;;;;17.75;13.75;;;;;11.98;63.04;103096.06;4962196;28;45349;-49
2023/02/04 05:32:42;;;;;;;;;21.50;15.00;;;;;11.98;63.16;103098.69;4951262;28;46119;-47
2023/02/04 05:35:07;;;;;;;;;23.50;14.00;;;;;11.97;62.86;103105.69;4960848;28;45335;-49
2023/02/04 05:37:33;;;;;;;;;14.00;13.75;;;;;11.95;62.80;103101.22;4962703;28;45375;-45
2023/02/04 05:39:58;;;;;;;;;21.50;15.00;;;;;11.95;63.24;103112.66;4962350;28;45333;-49
2023/02/04 05:42:23;;;;;;;;;14.50;13.00;;;;;11.98;62.97;103114.50;4961672;28;46254;-45
2023/02/04 05:44:49;;;;;;;;;11.25;8.50;;;;;11.97;63.20;103115.34;4961918;28;45232;-45
2023/02/04 05:47:14;;;;;;;;;15.25;13.75;;;;;11.98;63.05;103123.28;4962673;28;45464;-45
2023/02/04 05:49:40;;;;;;;;;14.00;13.00;;;;;11.97;62.97;103124.13;4962231;28;45204;-47
2023/02/04 05:52:05;;;;;;;;;12.75;11.50;;;;;11.99;63.08;103124.19;4962253;28;47383;-47
2023/02/04 05:54:31;;;;;;;;;15.00;13.75;;;;;12.00;63.05;103128.59;4962156;28;45437;-46
2023/02/04 05:56:56;;;;;;;;;12.75;12.25;;;;;11.97;63.04;103115.34;4956853;28;45976;-48
2023/02/04 05:59:21;;;;;;;;;15.75;13.75;;;;;12.00;62.86;103125.97;4960353;28;45558;-47
2023/02/04 06:01:47;;;;;;;;;15.50;14.00;;;;;12.00;62.75;103118.94;4962079;28;46092;-47
2023/02/04 06:04:14;;;;;;;;;16.00;15.75;;;;;12.00;62.93;103126.84;4961557;28;54949;-51
2023/02/04 06:06:39;;;;;;;;;16.50;15.75;;;;;12.00;62.97;103121.56;4962189;28;45437;-45
2023/02/04 06:09:05;;;;;;;;;14.50;13.00;;;;;12.00;62.80;103126.84;4961841;28;45256;-48
2023/02/04 06:11:30;;;;;;;;;18.00;17.75;;;;;11.97;62.87;103129.41;4961823;28;47137;-46
2023/02/04 06:13:55;;;;;;;;;9.75;9.00;;;;;11.96;62.89;103119.75;4961669;28;45345;-45
2023/02/04 06:16:20;;;;;;;;;15.50;13.00;;;;;11.92;62.94;103109.97;4962117;28;45322;-47
2023/02/04 06:18:46;;;;;;;;;14.25;12.50;;;;;11.93;63.01;103122.28;4961814;28;45316;-47
2023/02/04 06:21:11;;;;;;;;;16.50;13.00;;;;;11.91;62.92;103120.47;4961392;28;58540;-49
2023/02/04 06:23:36;;;;;;;;;12.25;11.75;;;;;11.87;63.14;103123.06;4961405;28;51866;-47
2023/02/04 06:26:02;;;;;;;;;11.25;10.00;;;;;11.85;62.91;103126.53;4961915;28;45382;-45
2023/02/04 06:28:27;;;;;;;;;15.00;13.50;;;;;11.82;62.95;103123.81;4960206;28;46247;-45
2023/02/04 06:30:53;;;;;;;;;12.50;12.50;;;;;11.79;63.28;103123.78;4961806;28;45452;-47
2023/02/04 06:33:20;;;;;;;;;15.50;14.00;;;;;11.76;63.10;103119.34;4948693;28;45442;-47
2023/02/04 06:35:45;;;;;;;;;11.00;9.75;;;;;11.74;62.89;103122.81;4961879;28;45246;-47
2023/02/04 06:38:11;;;;;;;;;15.50;13.50;;;;;11.72;63.01;103128.03;4961446;28;45418;-48
2023/02/04 06:40:37;;;;;;;;;12.50;9.00;;;;;11.70;62.97;103117.47;4961552;28;46123;-47
2023/02/04 06:43:02;;;;;;;;;13.25;12.00;;;;;11.70;62.75;103121.88;4960703;28;45239;-50
2023/02/04 06:45:27;;;;;;;;;12.00;11.00;;;;;11.70;63.14;103127.13;4940761;28;45339;-49
2023/02/04 06:47:53;;;;;;;;;12.25;11.00;;;;;11.69;63.20;103117.44;4957988;28;47955;-46
2023/02/04 06:50:18;;;;;;;;;11.00;10.75;;;;;11.69;63.12;103126.22;4961560;28;45284;-49
2023/02/04 06:52:45;;;;;;;;;14.25;11.00;;;;;11.68;63.18;103129.75;4961360;28;46092;-45
2023/02/04 06:55:11;;;;;;;;;12.50;10.75;;;;;11.68;63.03;103123.56;4961410;28;45408;-50
2023/02/04 06:57:36;;;;;;;;;12.50;12.25;;;;;11.65;63.18;103127.03;4953702;28;45449;-45
2023/02/04 07:00:02;;;;;;;;;16.00;14.50;;;;;11.69;63.07;103133.25;4958880;28;45258;-46
2023/02/04 07:02:28;;;;;;;;;11.25;11.00;;;;;11.69;63.33;103134.13;4945377;28;45440;-47
2023/02/04 07:04:53;;;;;;;;;13.75;12.00;;;;;11.66;63.17;103128.81;4961910;28;45433;-49
2023/02/04 07:07:18;;;;;;;;;14.75;12.50;;;;;11.70;62.84;103132.41;4961255;28;45395;-48
2023/02/04 07:09:44;;;;;;;;;13.75;12.25;;;;;11.71;62.88;103140.31;4961669;28;46123;-46
2023/02/04 07:12:09;;;;;;;;;14.25;11.00;;;;;11.73;62.92;103132.44;4961295;28;45243;-46
2023/02/04 07:14:35;;;;;;;;;16.75;14.50;;;;;11.74;62.93;103138.63;4962058;28;45459;-46
2023/02/04 07:17:00;;;;;;;;;14.75;12.25;;;;;11.77;62.93;103141.28;4944195;28;45842;-48
2023/02/04 07:19:25;;;;;;;;;14.00;13.00;;;;;11.79;62.95;103142.22;4960883;28;45522;-47
2023/02/04 07:21:53;;;;;;;;;17.75;13.75;;;;;11.80;63.05;103149.28;4960936;28;45350;-48
2023/02/04 07:24:19;;;;;;;;;16.50;16.50;;;;;11.80;63.08;103147.53;4961184;28;45307;-49
2023/02/04 07:26:44;;;;;;;;;19.50;16.25;;;;;11.82;63.20;103153.72;4960766;28;45404;-45
2023/02/04 07:29:10;;;;;;;;;17.75;16.25;;;;;11.84;62.87;103159.00;4960632;28;45370;-48
2023/02/04 07:31:35;;;;;;;;;17.75;16.00;;;;;11.86;63.06;103165.16;4958208;28;45365;-47
2023/02/04 07:34:00;;;;;;;;;17.75;16.50;;;;;11.87;63.01;103161.69;4950186;28;49798;-47
2023/02/04 07:36:26;;;;;;;;;19.00;17.25;;;;;11.88;63.05;103163.47;4960341;28;55714;-48
2023/02/04 07:38:52;;;;;;;;;19.25;16.25;;;;;11.90;62.94;103164.41;4940113;28;48407;-46
2023/02/04 07:41:17;;;;;;;;;17.50;15.75;;;;;11.90;63.08;103166.13;4956403;28;45259;-50
2023/02/04 07:43:43;;;;;;;;;16.50;14.00;;;;;11.93;62.83;103167.06;4943138;28;45344;-49
2023/02/04 07:46:08;;;;;;;;;17.00;17.00;;;;;11.95;63.05;103170.63;4960348;28;45312;-49
2023/02/04 07:48:34;;;;;;;;;15.75;12.25;;;;;11.96;62.95;103168.91;4960691;28;45350;-46
2023/02/04 07:50:59;;;;;;;;;18.25;16.00;;;;;11.98;63.07;103173.34;4960621;28;48952;-46
2023/02/04 07:53:24;;;;;;;;;16.50;16.50;;;;;11.97;63.06;103171.56;4960445;28;51191;-45
2023/02/04 07:55:49;;;;;;;;;19.00;16.00;;;;;12.01;62.91;103176.06;4958494;28;45499;-45
2023/02/04 07:58:15;;;;;;;;;20.75;16.25;;;;;12.03;62.99;103184.84;4952680;28;52646;-50
2023/02/04 08:00:40;;;;;;;;;18.50;14.50;;;;;12.05;62.97;103178.72;4953800;28;45237;-48
2023/02/04 08:03:05;;;;;;;;;15.75;14.25;;;;;12.06;62.74;103183.16;4960179;28;51763;-49
2023/02/04 08:05:31;;;;;;;;;17.25;13.25;;;;;12.08;62.73;103187.59;4961274;28;45497;-48
2023/02/04 08:07:57;;;;;;;;;19.50;14.00;;;;;12.10;63.00;103187.63;4963828;28;47842;-46
2023/02/04 08:10:22;;;;;;;;;22.50;16.25;;;;;12.10;62.68;103185.88;4963791;28;45195;-48
2023/02/04 08:12:48;;;;;;;;;13.50;12.50;;;;;12.13;63.15;103192.97;4963748;28;45387;-46
2023/02/04 08:15:13;;;;;;;;;17.50;17.00;;;;;12.13;63.04;103192.97;4963604;28;45314;-46
2023/02/04 08:17:38;;;;;;;;;15.50;14.25;;;;;12.13;63.14;103193.84;4963806;28;45585;-47
2023/02/04 08:20:04;;;;;;;;;17.25;14.50;;;;;12.15;62.88;103194.75;4963311;28;50894;-47
2023/02/04 08:22:29;;;;;;;;;18.00;15.25;;;;;12.15;63.17;103188.56;4963826;28;45393;-47
2023/02/04 08:24:54;;;;;;;;;17.00;14.00;;;;;12.18;63.17;103197.44;4963530;28;45334;-47
2023/02/04 08:27:20;;;;;;;;;19.25;16.25;;;;;12.20;62.98;103197.50;4946046;28;46896;-45
2023/02/04 08:29:45;;;;;;;;;17.00;13.75;;;;;12.22;62.87;103200.16;4960887;28;45314;-49
2023/02/04 08:32:12;;;;;;;;;17.50;15.75;;;;;12.24;63.07;103207.22;4952407;28;45321;-49
2023/02/04 08:34:38;;;;;;;;;19.50;18.25;;;;;12.26;63.14;103202.84;4940350;28;45470;-49
2023/02/04 08:37:03;;;;;;;;;18.50;13.00;;;;;12.27;62.61;103202.00;4963396;28;47082;-52
2023/02/04 08:39:29;;;;;;;;;18.25;13.50;;;;;12.30;62.85;103199.41;4945852;28;45329;-51
2023/02/04 08:41:54;;;;;;;;;21.00;14.50;;;;;12.33;62.90;103199.47;4963508;28;45303;-52
2023/02/04 08:44:19;;;;;;;;;16.25;13.50;;;;;12.34;62.70;103201.25;4962665;28;45883;-50
2023/02/04 08:46:45;;;;;;;;;11.75;11.75;;;;;12.35;62.84;103196.84;4963404;28;45231;-53
2023/02/04 08:49:10;;;;;;;;;18.75;15.25;;;;;12.39;62.72;103205.69;4962824;28;45239;-51
2023/02/04 08:51:35;;;;;;;;;14.25;12.00;;;;;12.38;63.05;103199.56;4963498;28;45267;-50
2023/02/04 08:54:01;;;;;;;;;16.75;13.75;;;;;12.40;62.98;103196.94;4963007;28;45239;-51
2023/02/04 08:56:26;;;;;;;;;16.00;13.25;;;;;12.42;62.78;103198.75;4961182;28;57712;-49
2023/02/04 08:58:54;;;;;;;;;42.25;34.25;;;;;12.44;62.93;103201.38;4957108;28;45216;-50
2023/02/04 09:01:19;;;;;;;;;14.50;12.75;;;;;12.46;63.04;103210.22;4956918;28;46536;-48
2023/02/04 09:03:44;;;;;;;;;15.50;15.25;;;;;12.44;62.81;103201.38;4945258;28;45604;-47
2023/02/04 09:06:10;;;;;;;;;17.25;15.25;;;;;12.46;62.96;103204.94;4962897;28;45370;-46
2023/02/04 09:08:36;;;;;;;;;12.50;11.25;;;;;12.49;62.99;103207.63;4962972;28;45310;-47
2023/02/04 09:11:01;;;;;;;;;11.75;10.50;;;;;12.46;62.74;103210.22;4962984;28;45397;-52
2023/02/04 09:13:27;;;;;;;;;12.75;11.25;;;;;12.49;62.74;103218.19;4945049;28;45519;-51
2023/02/04 09:15:52;;;;;;;;;8.50;7.00;;;;;12.47;62.84;103219.91;4962857;28;46089;-54
2023/02/04 09:18:20;;;;;;;;;11.00;10.50;;;;;12.48;62.71;103219.06;4961665;28;45319;-49
2023/02/04 09:20:48;;;;;;;;;12.25;10.00;;;;;12.48;62.98;103229.63;4962774;28;45408;-50
2023/02/04 09:23:14;;;;;;;;;10.75;10.50;;;;;12.47;62.76;103220.78;4962631;28;45367;-47
2023/02/04 09:25:41;;;;;;;;;13.50;10.75;;;;;12.48;62.91;103227.84;4945080;28;45441;-48
2023/02/04 09:28:11;;;;;;;;;16.00;14.75;;;;;12.51;62.76;103235.84;4958441;28;45493;-49
2023/02/04 09:30:41;;;;;;;;;13.25;13.25;;;;;12.52;63.16;103226.16;4959387;28;45314;-48
2023/02/04 09:33:07;;;;;;;;;15.50;14.25;;;;;12.53;63.05;103227.94;4948318;28;45540;-46
2023/02/04 09:35:33;;;;;;;;;15.75;12.25;;;;;12.55;63.16;103231.47;4941099;28;45424;-46
2023/02/04 09:37:58;;;;;;;;;15.50;11.75;;;;;12.54;63.08;103232.38;4957565;28;45392;-51
2023/02/04 09:40:27;;;;;;;;;14.00;14.00;;;;;12.56;63.07;103233.25;4962525;28;45314;-48
2023/02/04 09:42:54;;;;;;;;;16.25;13.75;;;;;12.60;63.08;103236.84;4962014;28;45231;-47
2023/02/04 09:45:26;;;;;;;;;15.50;14.00;;;;;12.62;63.05;103237.75;4944459;28;47286;-47
2023/02/04 09:47:53;;;;;;;;;11.50;10.75;;;;;12.62;63.18;103233.38;4962055;28;45302;-48
2023/02/04 09:50:23;;;;;;;;;13.25;12.00;;;;;12.65;63.33;103237.81;4962483;28;45561;-49
2023/02/04 09:52:51;;;;;;;;;15.25;15.25;;;;;12.66;63.28;103237.81;4962022;28;45318;-49
2023/02/04 09:55:18;;;;;;;;;15.00;12.25;;;;;12.70;63.43;103235.25;4962213;28;45319;-54
2023/02/04 09:57:44;;;;;;;;;15.50;13.75;;;;;12.70;63.30;103238.75;4954566;28;45508;-50
2023/02/04 10:00:23;;;;;;;;;14.25;13.25;;;;;12.72;63.09;103244.09;4955628;28;45301;-49
2023/02/04 10:02:48;;;;;;;;;13.25;12.75;;;;;12.71;63.39;103237.03;4949678;28;45309;-45
2023/02/04 10:05:16;;;;;;;;;13.75;12.50;;;;;12.71;63.21;103245.81;4944455;28;46316;-55
2023/02/04 10:07:44;;;;;;;;;16.25;13.75;;;;;12.70;63.57;103244.03;4961993;28;45346;-53
2023/02/04 10:10:19;;;;;;;;;16.75;14.75;;;;;12.71;63.51;103247.59;4961629;28;45326;-48
2023/02/04 10:12:46;;;;;;;;;17.50;12.75;;;;;12.70;63.71;103251.09;4961453;28;45318;-52
2023/02/04 10:15:18;;;;;;;;;15.25;13.75;;;;;12.71;63.36;103251.09;4961441;28;45354;-48
2023/02/04 10:17:44;;;;;;;;;12.50;12.50;;;;;12.70;63.49;103248.44;4961702;28;45240;-46
2023/02/04 10:20:21;;;;;;;;;11.25;9.75;;;;;12.66;63.81;103251.00;4961726;28;45363;-48
2023/02/04 10:22:48;;;;;;;;;15.00;12.75;;;;;12.67;63.69;103262.47;4961862;28;45344;-51
2023/02/04 10:25:19;;;;;;;;;16.75;15.25;;;;;12.65;63.70;103256.25;4961387;28;45284;-46
2023/02/04 10:27:56;;;;;;;;;12.25;12.00;;;;;12.64;63.65;103263.31;4961531;28;45511;-43
2023/02/04 10:30:24;;;;;;;;;16.25;13.50;;;;;12.63;63.99;103261.53;4943084;28;45485;-50
2023/02/04 10:32:49;;;;;;;;;15.25;13.25;;;;;12.64;64.01;103257.13;4949452;28;45342;-44
2023/02/04 10:35:18;;;;;;;;;16.25;15.00;;;;;12.63;63.76;103272.06;4960873;28;45229;-43
2023/02/04 10:37:43;;;;;;;;;18.75;15.50;;;;;12.63;64.01;103268.56;4961607;28;45322;-45
2023/02/04 10:40:33;;;;;;;;;15.00;13.00;;;;;12.62;64.05;103269.41;4961396;28;45327;-43
2023/02/04 10:42:59;;;;;;;;;23.00;15.00;;;;;12.57;63.71;103261.41;4954197;28;45488;-44
2023/02/04 10:45:29;;;;;;;;;18.75;16.75;;;;;12.60;64.30;103276.41;4961046;28;46267;-45
2023/02/04 10:47:55;;;;;;;;;15.75;13.00;;;;;12.59;64.24;103271.97;4961370;28;45464;-44
2023/02/04 10:50:24;;;;;;;;;18.75;16.00;;;;;12.57;64.04;103277.25;4944181;28;45464;-51
2023/02/04 10:54:28;;;;;;;;;16.25;14.50;;;;;12.57;64.25;103271.97;4961118;28;45413;-53
2023/02/04 10:55:46;;;;;;;;;16.25;16.00;;;;;12.56;64.02;103267.53;4960883;28;45422;-52
2023/02/04 10:58:16;;;;;;;;;20.00;18.25;;;;;12.56;63.76;103275.47;4954043;28;45252;-51
2023/02/04 11:00:42;;;;;;;;;19.25;16.50;;;;;12.57;63.95;103279.88;4954559;28;46463;-51
2023/02/04 11:03:18;;;;;;;;;44.50;36.00;;;;;12.58;64.24;103273.75;4961067;28;45485;-48
2023/02/04 11:05:43;;;;;;;;;15.25;13.25;;;;;12.58;63.96;103268.47;4961059;28;45271;-52